sensor_id;sensor_type;location;lat;lon;timestamp;pressure;altitude;pressure_sealevel;temperature
29423;BMP180;16399;51.686;8.684;2023-04-09T00:02:23;100889.00;;;5.40
29423;BMP180;16399;51.686;8.684;2023-04-09T00:05:26;100908.00;;;5.40
29423;BMP180;16399;51.686;8.684;2023-04-09T00:08:28;100903.00;;;5.30
29423;BMP180;16399;51.686;8.684;2023-04-09T00:11:31;100892.00;;;5.30
29423;BMP180;16399;51.686;8.684;2023-04-09T00:14:33;100890.00;;;5.20
29423;BMP180;16399;51.686;8.684;2023-04-09T00:17:36;100893.00;;;5.20
29423;BMP180;16399;51.686;8.684;2023-04-09T00:20:38;100892.00;;;5.20
29423;BMP180;16399;51.686;8.684;2023-04-09T00:23:41;100896.00;;;5.10
29423;BMP180;16399;51.686;8.684;2023-04-09T00:26:43;100900.00;;;5.00
29423;BMP180;16399;51.686;8.684;2023-04-09T00:29:46;100882.00;;;5.00
29423;BMP180;16399;51.686;8.684;2023-04-09T00:32:48;100890.00;;;4.90
29423;BMP180;16399;51.686;8.684;2023-04-09T00:35:51;100887.00;;;4.80
29423;BMP180;16399;51.686;8.684;2023-04-09T00:38:53;100876.00;;;4.80
29423;BMP180;16399;51.686;8.684;2023-04-09T00:42:00;100884.00;;;4.70
29423;BMP180;16399;51.686;8.684;2023-04-09T00:45:06;100887.00;;;4.60
29423;BMP180;16399;51.686;8.684;2023-04-09T00:48:08;100883.00;;;4.60
29423;BMP180;16399;51.686;8.684;2023-04-09T00:51:10;100889.00;;;4.50
29423;BMP180;16399;51.686;8.684;2023-04-09T00:54:13;100895.00;;;4.50
29423;BMP180;16399;51.686;8.684;2023-04-09T00:57:17;100884.00;;;4.40
29423;BMP180;16399;51.686;8.684;2023-04-09T01:00:19;100893.00;;;4.40
29423;BMP180;16399;51.686;8.684;2023-04-09T01:03:21;100889.00;;;4.40
29423;BMP180;16399;51.686;8.684;2023-04-09T01:06:44;100876.00;;;4.30
29423;BMP180;16399;51.686;8.684;2023-04-09T01:10:04;100882.00;;;4.20
29423;BMP180;16399;51.686;8.684;2023-04-09T01:13:10;100882.00;;;4.20
29423;BMP180;16399;51.686;8.684;2023-04-09T01:16:14;100873.00;;;4.20
29423;BMP180;16399;51.686;8.684;2023-04-09T01:23:00;100879.00;;;4.10
29423;BMP180;16399;51.686;8.684;2023-04-09T01:29:21;100871.00;;;4.10
29423;BMP180;16399;51.686;8.684;2023-04-09T01:32:24;100877.00;;;4.00
29423;BMP180;16399;51.686;8.684;2023-04-09T01:35:27;100880.00;;;4.00
29423;BMP180;16399;51.686;8.684;2023-04-09T01:38:31;100887.00;;;4.00
29423;BMP180;16399;51.686;8.684;2023-04-09T01:41:35;100885.00;;;3.90
29423;BMP180;16399;51.686;8.684;2023-04-09T01:44:39;100879.00;;;3.80
29423;BMP180;16399;51.686;8.684;2023-04-09T01:47:42;100879.00;;;3.80
29423;BMP180;16399;51.686;8.684;2023-04-09T01:50:45;100875.00;;;3.70
29423;BMP180;16399;51.686;8.684;2023-04-09T01:53:49;100875.00;;;3.70
29423;BMP180;16399;51.686;8.684;2023-04-09T01:56:51;100878.00;;;3.60
29423;BMP180;16399;51.686;8.684;2023-04-09T01:59:54;100891.00;;;3.60
29423;BMP180;16399;51.686;8.684;2023-04-09T02:03:02;100886.00;;;3.50
29423;BMP180;16399;51.686;8.684;2023-04-09T02:06:15;100884.00;;;3.50
29423;BMP180;16399;51.686;8.684;2023-04-09T02:09:18;100889.00;;;3.50
29423;BMP180;16399;51.686;8.684;2023-04-09T02:12:21;100886.00;;;3.50
29423;BMP180;16399;51.686;8.684;2023-04-09T02:15:25;100884.00;;;3.50
29423;BMP180;16399;51.686;8.684;2023-04-09T02:18:29;100885.00;;;3.50
29423;BMP180;16399;51.686;8.684;2023-04-09T02:21:31;100879.00;;;3.50
29423;BMP180;16399;51.686;8.684;2023-04-09T02:24:34;100875.00;;;3.60
29423;BMP180;16399;51.686;8.684;2023-04-09T02:27:36;100873.00;;;3.60
29423;BMP180;16399;51.686;8.684;2023-04-09T02:30:39;100877.00;;;3.60
29423;BMP180;16399;51.686;8.684;2023-04-09T02:33:41;100878.00;;;3.60
29423;BMP180;16399;51.686;8.684;2023-04-09T02:36:43;100879.00;;;3.60
29423;BMP180;16399;51.686;8.684;2023-04-09T02:39:46;100884.00;;;3.60
29423;BMP180;16399;51.686;8.684;2023-04-09T02:42:49;100874.00;;;3.60
29423;BMP180;16399;51.686;8.684;2023-04-09T02:45:51;100871.00;;;3.50
29423;BMP180;16399;51.686;8.684;2023-04-09T02:48:53;100869.00;;;3.50
29423;BMP180;16399;51.686;8.684;2023-04-09T02:51:56;100875.00;;;3.50
29423;BMP180;16399;51.686;8.684;2023-04-09T02:54:58;100871.00;;;3.50
29423;BMP180;16399;51.686;8.684;2023-04-09T02:58:00;100864.00;;;3.50
29423;BMP180;16399;51.686;8.684;2023-04-09T03:01:03;100858.00;;;3.50
29423;BMP180;16399;51.686;8.684;2023-04-09T03:04:05;100859.00;;;3.40
29423;BMP180;16399;51.686;8.684;2023-04-09T03:07:07;100861.00;;;3.40
29423;BMP180;16399;51.686;8.684;2023-04-09T03:10:10;100852.00;;;3.40
29423;BMP180;16399;51.686;8.684;2023-04-09T03:13:12;100858.00;;;3.40
29423;BMP180;16399;51.686;8.684;2023-04-09T03:16:14;100862.00;;;3.30
29423;BMP180;16399;51.686;8.684;2023-04-09T03:19:17;100861.00;;;3.30
29423;BMP180;16399;51.686;8.684;2023-04-09T03:22:19;100859.00;;;3.30
29423;BMP180;16399;51.686;8.684;2023-04-09T03:25:21;100850.00;;;3.30
29423;BMP180;16399;51.686;8.684;2023-04-09T03:28:24;100856.00;;;3.40
29423;BMP180;16399;51.686;8.684;2023-04-09T03:31:26;100844.00;;;3.40
29423;BMP180;16399;51.686;8.684;2023-04-09T03:34:28;100848.00;;;3.40
29423;BMP180;16399;51.686;8.684;2023-04-09T03:37:30;100838.00;;;3.40
29423;BMP180;16399;51.686;8.684;2023-04-09T03:40:33;100835.00;;;3.40
29423;BMP180;16399;51.686;8.684;2023-04-09T03:43:36;100836.00;;;3.40
29423;BMP180;16399;51.686;8.684;2023-04-09T03:46:39;100830.00;;;3.40
29423;BMP180;16399;51.686;8.684;2023-04-09T03:49:41;100830.00;;;3.40
29423;BMP180;16399;51.686;8.684;2023-04-09T03:52:43;100823.00;;;3.40
29423;BMP180;16399;51.686;8.684;2023-04-09T03:55:45;100845.00;;;3.40
29423;BMP180;16399;51.686;8.684;2023-04-09T03:58:48;100833.00;;;3.40
29423;BMP180;16399;51.686;8.684;2023-04-09T04:01:50;100836.00;;;3.30
29423;BMP180;16399;51.686;8.684;2023-04-09T04:04:52;100831.00;;;3.40
29423;BMP180;16399;51.686;8.684;2023-04-09T04:07:55;100830.00;;;3.30
29423;BMP180;16399;51.686;8.684;2023-04-09T04:11:04;100826.00;;;3.30
29423;BMP180;16399;51.686;8.684;2023-04-09T04:14:06;100831.00;;;3.30
29423;BMP180;16399;51.686;8.684;2023-04-09T04:17:09;100832.00;;;3.30
29423;BMP180;16399;51.686;8.684;2023-04-09T04:20:12;100835.00;;;3.20
29423;BMP180;16399;51.686;8.684;2023-04-09T04:23:15;100832.00;;;3.20
29423;BMP180;16399;51.686;8.684;2023-04-09T04:26:17;100835.00;;;3.20
29423;BMP180;16399;51.686;8.684;2023-04-09T04:29:19;100839.00;;;3.20
29423;BMP180;16399;51.686;8.684;2023-04-09T04:32:21;100836.00;;;3.20
29423;BMP180;16399;51.686;8.684;2023-04-09T04:35:24;100839.00;;;3.20
29423;BMP180;16399;51.686;8.684;2023-04-09T04:38:26;100836.00;;;3.30
29423;BMP180;16399;51.686;8.684;2023-04-09T04:41:28;100839.00;;;3.20
29423;BMP180;16399;51.686;8.684;2023-04-09T04:44:31;100839.00;;;3.20
29423;BMP180;16399;51.686;8.684;2023-04-09T04:47:33;100850.00;;;3.20
29423;BMP180;16399;51.686;8.684;2023-04-09T04:50:35;100851.00;;;3.20
29423;BMP180;16399;51.686;8.684;2023-04-09T04:53:37;100847.00;;;3.30
29423;BMP180;16399;51.686;8.684;2023-04-09T04:56:40;100852.00;;;3.30
29423;BMP180;16399;51.686;8.684;2023-04-09T04:59:42;100866.00;;;3.30
29423;BMP180;16399;51.686;8.684;2023-04-09T05:02:44;100856.00;;;3.30
29423;BMP180;16399;51.686;8.684;2023-04-09T05:05:47;100854.00;;;3.30
29423;BMP180;16399;51.686;8.684;2023-04-09T05:08:49;100855.00;;;3.40
29423;BMP180;16399;51.686;8.684;2023-04-09T05:11:51;100846.00;;;3.40
29423;BMP180;16399;51.686;8.684;2023-04-09T05:14:53;100860.00;;;3.50
29423;BMP180;16399;51.686;8.684;2023-04-09T05:17:56;100853.00;;;3.60
29423;BMP180;16399;51.686;8.684;2023-04-09T05:20:59;100847.00;;;3.70
29423;BMP180;16399;51.686;8.684;2023-04-09T05:24:02;100852.00;;;3.90
29423;BMP180;16399;51.686;8.684;2023-04-09T05:27:04;100854.00;;;4.00
29423;BMP180;16399;51.686;8.684;2023-04-09T05:30:07;100843.00;;;4.10
29423;BMP180;16399;51.686;8.684;2023-04-09T05:33:09;100849.00;;;4.20
29423;BMP180;16399;51.686;8.684;2023-04-09T05:36:16;100835.00;;;4.30
29423;BMP180;16399;51.686;8.684;2023-04-09T05:39:19;100834.00;;;4.40
29423;BMP180;16399;51.686;8.684;2023-04-09T05:42:21;100838.00;;;4.60
29423;BMP180;16399;51.686;8.684;2023-04-09T05:45:23;100839.00;;;4.70
29423;BMP180;16399;51.686;8.684;2023-04-09T05:48:26;100844.00;;;4.80
29423;BMP180;16399;51.686;8.684;2023-04-09T05:51:28;100844.00;;;4.90
29423;BMP180;16399;51.686;8.684;2023-04-09T05:54:30;100848.00;;;5.10
29423;BMP180;16399;51.686;8.684;2023-04-09T05:57:32;100830.00;;;5.20
29423;BMP180;16399;51.686;8.684;2023-04-09T06:00:35;100829.00;;;5.40
29423;BMP180;16399;51.686;8.684;2023-04-09T06:03:37;100834.00;;;5.50
29423;BMP180;16399;51.686;8.684;2023-04-09T06:06:40;100833.00;;;5.60
29423;BMP180;16399;51.686;8.684;2023-04-09T06:09:42;100838.00;;;5.70
29423;BMP180;16399;51.686;8.684;2023-04-09T06:12:45;100825.00;;;5.90
29423;BMP180;16399;51.686;8.684;2023-04-09T06:15:47;100834.00;;;6.00
29423;BMP180;16399;51.686;8.684;2023-04-09T06:18:49;100833.00;;;6.10
29423;BMP180;16399;51.686;8.684;2023-04-09T06:21:53;100829.00;;;6.20
29423;BMP180;16399;51.686;8.684;2023-04-09T06:24:56;100827.00;;;6.30
29423;BMP180;16399;51.686;8.684;2023-04-09T06:27:58;100835.00;;;6.40
29423;BMP180;16399;51.686;8.684;2023-04-09T06:31:00;100848.00;;;6.50
29423;BMP180;16399;51.686;8.684;2023-04-09T06:34:02;100847.00;;;6.70
29423;BMP180;16399;51.686;8.684;2023-04-09T06:37:05;100836.00;;;6.80
29423;BMP180;16399;51.686;8.684;2023-04-09T06:40:09;100827.00;;;6.90
29423;BMP180;16399;51.686;8.684;2023-04-09T06:43:11;100850.00;;;7.10
29423;BMP180;16399;51.686;8.684;2023-04-09T06:46:14;100848.00;;;7.20
29423;BMP180;16399;51.686;8.684;2023-04-09T06:49:18;100848.00;;;7.40
29423;BMP180;16399;51.686;8.684;2023-04-09T06:52:20;100838.00;;;7.50
29423;BMP180;16399;51.686;8.684;2023-04-09T06:55:22;100844.00;;;7.60
29423;BMP180;16399;51.686;8.684;2023-04-09T06:58:27;100851.00;;;7.70
29423;BMP180;16399;51.686;8.684;2023-04-09T07:01:30;100847.00;;;7.90
29423;BMP180;16399;51.686;8.684;2023-04-09T07:04:32;100835.00;;;8.10
29423;BMP180;16399;51.686;8.684;2023-04-09T07:07:34;100848.00;;;8.20
29423;BMP180;16399;51.686;8.684;2023-04-09T07:10:37;100825.00;;;8.40
29423;BMP180;16399;51.686;8.684;2023-04-09T07:13:39;100827.00;;;8.60
29423;BMP180;16399;51.686;8.684;2023-04-09T07:16:41;100833.00;;;8.60
29423;BMP180;16399;51.686;8.684;2023-04-09T07:19:45;100829.00;;;8.70
29423;BMP180;16399;51.686;8.684;2023-04-09T07:22:48;100835.00;;;8.90
29423;BMP180;16399;51.686;8.684;2023-04-09T07:25:50;100825.00;;;9.10
29423;BMP180;16399;51.686;8.684;2023-04-09T07:28:52;100821.00;;;9.20
29423;BMP180;16399;51.686;8.684;2023-04-09T07:31:54;100838.00;;;9.30
29423;BMP180;16399;51.686;8.684;2023-04-09T07:34:58;100829.00;;;9.50
29423;BMP180;16399;51.686;8.684;2023-04-09T07:38:00;100828.00;;;9.60
29423;BMP180;16399;51.686;8.684;2023-04-09T07:41:03;100835.00;;;9.70
29423;BMP180;16399;51.686;8.684;2023-04-09T07:44:05;100829.00;;;9.80
29423;BMP180;16399;51.686;8.684;2023-04-09T07:47:07;100844.00;;;9.90
29423;BMP180;16399;51.686;8.684;2023-04-09T07:50:11;100839.00;;;10.10
29423;BMP180;16399;51.686;8.684;2023-04-09T07:53:13;100836.00;;;10.10
29423;BMP180;16399;51.686;8.684;2023-04-09T07:56:15;100845.00;;;10.30
29423;BMP180;16399;51.686;8.684;2023-04-09T07:59:18;100832.00;;;10.50
29423;BMP180;16399;51.686;8.684;2023-04-09T08:02:20;100844.00;;;10.70
29423;BMP180;16399;51.686;8.684;2023-04-09T08:05:24;100843.00;;;10.80
29423;BMP180;16399;51.686;8.684;2023-04-09T08:08:26;100838.00;;;11.00
29423;BMP180;16399;51.686;8.684;2023-04-09T08:11:28;100839.00;;;11.10
29423;BMP180;16399;51.686;8.684;2023-04-09T08:14:31;100839.00;;;11.30
29423;BMP180;16399;51.686;8.684;2023-04-09T08:17:34;100831.00;;;11.50
29423;BMP180;16399;51.686;8.684;2023-04-09T08:20:37;100832.00;;;11.70
29423;BMP180;16399;51.686;8.684;2023-04-09T08:23:41;100836.00;;;12.00
29423;BMP180;16399;51.686;8.684;2023-04-09T08:26:43;100833.00;;;12.20
29423;BMP180;16399;51.686;8.684;2023-04-09T08:29:46;100846.00;;;12.30
29423;BMP180;16399;51.686;8.684;2023-04-09T08:32:48;100836.00;;;12.40
29423;BMP180;16399;51.686;8.684;2023-04-09T08:35:51;100836.00;;;12.50
29423;BMP180;16399;51.686;8.684;2023-04-09T08:38:53;100833.00;;;12.70
29423;BMP180;16399;51.686;8.684;2023-04-09T08:41:58;100834.00;;;12.80
29423;BMP180;16399;51.686;8.684;2023-04-09T08:45:05;100844.00;;;13.00
29423;BMP180;16399;51.686;8.684;2023-04-09T08:48:09;100838.00;;;13.10
29423;BMP180;16399;51.686;8.684;2023-04-09T08:51:17;100843.00;;;13.20
29423;BMP180;16399;51.686;8.684;2023-04-09T08:54:20;100831.00;;;13.20
29423;BMP180;16399;51.686;8.684;2023-04-09T08:57:24;100843.00;;;13.40
29423;BMP180;16399;51.686;8.684;2023-04-09T09:00:27;100835.00;;;13.50
29423;BMP180;16399;51.686;8.684;2023-04-09T09:03:30;100830.00;;;13.60
29423;BMP180;16399;51.686;8.684;2023-04-09T09:06:36;100830.00;;;13.70
29423;BMP180;16399;51.686;8.684;2023-04-09T09:10:01;100820.00;;;13.80
29423;BMP180;16399;51.686;8.684;2023-04-09T09:13:00;100820.00;;;13.80
29423;BMP180;16399;51.686;8.684;2023-04-09T09:16:14;100827.00;;;14.00
29423;BMP180;16399;51.686;8.684;2023-04-09T09:19:27;100829.00;;;13.90
29423;BMP180;16399;51.686;8.684;2023-04-09T09:22:47;100822.00;;;13.80
29423;BMP180;16399;51.686;8.684;2023-04-09T09:25:38;100815.00;;;13.90
29423;BMP180;16399;51.686;8.684;2023-04-09T09:28:40;100814.00;;;14.10
29423;BMP180;16399;51.686;8.684;2023-04-09T09:31:47;100807.00;;;14.20
29423;BMP180;16399;51.686;8.684;2023-04-09T09:35:06;100810.00;;;14.30
29423;BMP180;16399;51.686;8.684;2023-04-09T09:38:09;100808.00;;;14.50
29423;BMP180;16399;51.686;8.684;2023-04-09T09:41:15;100809.00;;;14.80
29423;BMP180;16399;51.686;8.684;2023-04-09T09:44:32;100813.00;;;15.10
29423;BMP180;16399;51.686;8.684;2023-04-09T09:47:34;100815.00;;;14.80
29423;BMP180;16399;51.686;8.684;2023-04-09T09:50:38;100807.00;;;14.60
29423;BMP180;16399;51.686;8.684;2023-04-09T09:53:43;100804.00;;;14.60
29423;BMP180;16399;51.686;8.684;2023-04-09T09:56:46;100800.00;;;14.50
29423;BMP180;16399;51.686;8.684;2023-04-09T09:59:57;100805.00;;;14.60
29423;BMP180;16399;51.686;8.684;2023-04-09T10:03:11;100797.00;;;15.00
29423;BMP180;16399;51.686;8.684;2023-04-09T10:06:13;100808.00;;;15.40
29423;BMP180;16399;51.686;8.684;2023-04-09T10:09:17;100803.00;;;15.50
29423;BMP180;16399;51.686;8.684;2023-04-09T10:12:24;100808.00;;;15.30
29423;BMP180;16399;51.686;8.684;2023-04-09T10:15:30;100797.00;;;15.30
29423;BMP180;16399;51.686;8.684;2023-04-09T10:18:33;100793.00;;;15.20
29423;BMP180;16399;51.686;8.684;2023-04-09T10:21:42;100797.00;;;15.20
29423;BMP180;16399;51.686;8.684;2023-04-09T10:24:45;100797.00;;;15.10
29423;BMP180;16399;51.686;8.684;2023-04-09T10:27:58;100792.00;;;14.90
29423;BMP180;16399;51.686;8.684;2023-04-09T10:31:07;100796.00;;;14.90
29423;BMP180;16399;51.686;8.684;2023-04-09T10:34:06;100808.00;;;14.70
29423;BMP180;16399;51.686;8.684;2023-04-09T10:37:19;100797.00;;;14.60
29423;BMP180;16399;51.686;8.684;2023-04-09T10:40:20;100808.00;;;14.40
29423;BMP180;16399;51.686;8.684;2023-04-09T10:43:22;100800.00;;;14.10
29423;BMP180;16399;51.686;8.684;2023-04-09T10:49:40;100797.00;;;14.00
29423;BMP180;16399;51.686;8.684;2023-04-09T10:52:42;100803.00;;;14.20
29423;BMP180;16399;51.686;8.684;2023-04-09T10:55:51;100797.00;;;14.10
29423;BMP180;16399;51.686;8.684;2023-04-09T10:58:53;100791.00;;;14.10
29423;BMP180;16399;51.686;8.684;2023-04-09T11:01:55;100788.00;;;14.00
29423;BMP180;16399;51.686;8.684;2023-04-09T11:08:32;100784.00;;;14.20
29423;BMP180;16399;51.686;8.684;2023-04-09T11:11:35;100778.00;;;14.30
29423;BMP180;16399;51.686;8.684;2023-04-09T11:14:37;100767.00;;;14.60
29423;BMP180;16399;51.686;8.684;2023-04-09T11:17:39;100760.00;;;14.60
29423;BMP180;16399;51.686;8.684;2023-04-09T11:20:42;100762.00;;;14.70
29423;BMP180;16399;51.686;8.684;2023-04-09T11:23:52;100757.00;;;15.00
29423;BMP180;16399;51.686;8.684;2023-04-09T11:26:54;100754.00;;;15.20
29423;BMP180;16399;51.686;8.684;2023-04-09T11:29:56;100752.00;;;15.50
29423;BMP180;16399;51.686;8.684;2023-04-09T11:32:59;100759.00;;;15.70
29423;BMP180;16399;51.686;8.684;2023-04-09T11:36:04;100767.00;;;15.50
29423;BMP180;16399;51.686;8.684;2023-04-09T11:39:06;100761.00;;;15.50
29423;BMP180;16399;51.686;8.684;2023-04-09T11:42:13;100759.00;;;15.50
29423;BMP180;16399;51.686;8.684;2023-04-09T11:45:16;100760.00;;;15.50
29423;BMP180;16399;51.686;8.684;2023-04-09T11:48:19;100769.00;;;15.30
29423;BMP180;16399;51.686;8.684;2023-04-09T11:51:24;100753.00;;;15.20
29423;BMP180;16399;51.686;8.684;2023-04-09T11:54:32;100762.00;;;14.90
29423;BMP180;16399;51.686;8.684;2023-04-09T11:57:45;100747.00;;;14.90
29423;BMP180;16399;51.686;8.684;2023-04-09T12:00:48;100748.00;;;15.00
29423;BMP180;16399;51.686;8.684;2023-04-09T12:03:54;100737.00;;;15.10
29423;BMP180;16399;51.686;8.684;2023-04-09T12:06:56;100737.00;;;15.00
29423;BMP180;16399;51.686;8.684;2023-04-09T12:10:11;100744.00;;;15.40
29423;BMP180;16399;51.686;8.684;2023-04-09T12:13:10;100747.00;;;15.90
29423;BMP180;16399;51.686;8.684;2023-04-09T12:16:14;100751.00;;;16.10
29423;BMP180;16399;51.686;8.684;2023-04-09T12:19:17;100759.00;;;16.20
29423;BMP180;16399;51.686;8.684;2023-04-09T12:22:20;100748.00;;;16.10
29423;BMP180;16399;51.686;8.684;2023-04-09T12:25:23;100755.00;;;15.90
29423;BMP180;16399;51.686;8.684;2023-04-09T12:28:25;100760.00;;;15.30
29423;BMP180;16399;51.686;8.684;2023-04-09T12:31:27;100758.00;;;15.30
29423;BMP180;16399;51.686;8.684;2023-04-09T12:34:30;100756.00;;;14.80
29423;BMP180;16399;51.686;8.684;2023-04-09T12:37:32;100760.00;;;14.80
29423;BMP180;16399;51.686;8.684;2023-04-09T12:40:35;100760.00;;;14.70
29423;BMP180;16399;51.686;8.684;2023-04-09T12:43:37;100754.00;;;14.80
29423;BMP180;16399;51.686;8.684;2023-04-09T12:46:40;100747.00;;;14.90
29423;BMP180;16399;51.686;8.684;2023-04-09T12:49:43;100757.00;;;14.90
29423;BMP180;16399;51.686;8.684;2023-04-09T12:52:46;100747.00;;;14.90
29423;BMP180;16399;51.686;8.684;2023-04-09T12:55:49;100745.00;;;15.00
29423;BMP180;16399;51.686;8.684;2023-04-09T12:58:51;100742.00;;;14.80
29423;BMP180;16399;51.686;8.684;2023-04-09T13:01:54;100750.00;;;14.70
29423;BMP180;16399;51.686;8.684;2023-04-09T13:04:56;100744.00;;;14.70
29423;BMP180;16399;51.686;8.684;2023-04-09T13:07:58;100738.00;;;14.70
29423;BMP180;16399;51.686;8.684;2023-04-09T13:11:01;100744.00;;;14.60
29423;BMP180;16399;51.686;8.684;2023-04-09T13:14:04;100744.00;;;14.50
29423;BMP180;16399;51.686;8.684;2023-04-09T13:17:06;100740.00;;;14.50
29423;BMP180;16399;51.686;8.684;2023-04-09T13:20:09;100733.00;;;14.40
29423;BMP180;16399;51.686;8.684;2023-04-09T13:23:11;100736.00;;;14.40
29423;BMP180;16399;51.686;8.684;2023-04-09T13:26:13;100730.00;;;14.60
29423;BMP180;16399;51.686;8.684;2023-04-09T13:29:16;100735.00;;;14.70
29423;BMP180;16399;51.686;8.684;2023-04-09T13:32:19;100731.00;;;14.80
29423;BMP180;16399;51.686;8.684;2023-04-09T13:35:22;100730.00;;;15.00
29423;BMP180;16399;51.686;8.684;2023-04-09T13:38:24;100729.00;;;15.10
29423;BMP180;16399;51.686;8.684;2023-04-09T13:41:27;100730.00;;;15.20
29423;BMP180;16399;51.686;8.684;2023-04-09T13:44:30;100722.00;;;15.30
29423;BMP180;16399;51.686;8.684;2023-04-09T13:47:32;100722.00;;;15.30
29423;BMP180;16399;51.686;8.684;2023-04-09T13:50:35;100720.00;;;15.20
29423;BMP180;16399;51.686;8.684;2023-04-09T13:53:37;100727.00;;;15.10
29423;BMP180;16399;51.686;8.684;2023-04-09T13:56:39;100729.00;;;14.90
29423;BMP180;16399;51.686;8.684;2023-04-09T13:59:42;100726.00;;;14.80
29423;BMP180;16399;51.686;8.684;2023-04-09T14:02:44;100729.00;;;14.70
29423;BMP180;16399;51.686;8.684;2023-04-09T14:05:47;100725.00;;;14.60
29423;BMP180;16399;51.686;8.684;2023-04-09T14:08:49;100725.00;;;14.50
29423;BMP180;16399;51.686;8.684;2023-04-09T14:11:51;100724.00;;;14.50
29423;BMP180;16399;51.686;8.684;2023-04-09T14:14:55;100734.00;;;14.40
29423;BMP180;16399;51.686;8.684;2023-04-09T14:17:57;100734.00;;;14.40
29423;BMP180;16399;51.686;8.684;2023-04-09T14:20:59;100730.00;;;14.40
29423;BMP180;16399;51.686;8.684;2023-04-09T14:24:02;100726.00;;;14.40
29423;BMP180;16399;51.686;8.684;2023-04-09T14:27:05;100728.00;;;14.40
29423;BMP180;16399;51.686;8.684;2023-04-09T14:30:12;100726.00;;;14.40
29423;BMP180;16399;51.686;8.684;2023-04-09T14:33:14;100715.00;;;14.40
29423;BMP180;16399;51.686;8.684;2023-04-09T14:36:17;100706.00;;;14.40
29423;BMP180;16399;51.686;8.684;2023-04-09T14:39:19;100709.00;;;14.70
29423;BMP180;16399;51.686;8.684;2023-04-09T14:42:22;100702.00;;;14.90
29423;BMP180;16399;51.686;8.684;2023-04-09T14:45:24;100698.00;;;15.00
29423;BMP180;16399;51.686;8.684;2023-04-09T14:48:26;100707.00;;;15.10
29423;BMP180;16399;51.686;8.684;2023-04-09T14:51:29;100707.00;;;15.10
29423;BMP180;16399;51.686;8.684;2023-04-09T14:54:31;100696.00;;;15.00
29423;BMP180;16399;51.686;8.684;2023-04-09T14:57:34;100698.00;;;15.00
29423;BMP180;16399;51.686;8.684;2023-04-09T15:00:36;100696.00;;;15.00
29423;BMP180;16399;51.686;8.684;2023-04-09T15:03:39;100696.00;;;14.80
29423;BMP180;16399;51.686;8.684;2023-04-09T15:06:42;100695.00;;;14.70
29423;BMP180;16399;51.686;8.684;2023-04-09T15:09:45;100694.00;;;14.60
29423;BMP180;16399;51.686;8.684;2023-04-09T15:12:47;100683.00;;;14.50
29423;BMP180;16399;51.686;8.684;2023-04-09T15:15:50;100690.00;;;14.50
29423;BMP180;16399;51.686;8.684;2023-04-09T15:18:53;100685.00;;;14.50
29423;BMP180;16399;51.686;8.684;2023-04-09T15:21:57;100686.00;;;14.50
29423;BMP180;16399;51.686;8.684;2023-04-09T15:25:00;100672.00;;;14.50
29423;BMP180;16399;51.686;8.684;2023-04-09T15:28:02;100673.00;;;14.60
29423;BMP180;16399;51.686;8.684;2023-04-09T15:31:06;100670.00;;;14.60
29423;BMP180;16399;51.686;8.684;2023-04-09T15:34:08;100667.00;;;14.50
29423;BMP180;16399;51.686;8.684;2023-04-09T15:37:10;100670.00;;;14.50
29423;BMP180;16399;51.686;8.684;2023-04-09T15:40:13;100669.00;;;14.50
29423;BMP180;16399;51.686;8.684;2023-04-09T15:43:15;100676.00;;;14.40
29423;BMP180;16399;51.686;8.684;2023-04-09T15:46:17;100677.00;;;14.30
29423;BMP180;16399;51.686;8.684;2023-04-09T15:49:20;100684.00;;;14.30
29423;BMP180;16399;51.686;8.684;2023-04-09T15:52:23;100695.00;;;14.20
29423;BMP180;16399;51.686;8.684;2023-04-09T15:55:25;100678.00;;;14.10
29423;BMP180;16399;51.686;8.684;2023-04-09T15:58:28;100679.00;;;13.90
29423;BMP180;16399;51.686;8.684;2023-04-09T16:01:31;100676.00;;;13.70
29423;BMP180;16399;51.686;8.684;2023-04-09T16:04:33;100665.00;;;13.50
29423;BMP180;16399;51.686;8.684;2023-04-09T16:07:35;100672.00;;;13.40
29423;BMP180;16399;51.686;8.684;2023-04-09T16:10:39;100664.00;;;13.40
29423;BMP180;16399;51.686;8.684;2023-04-09T16:13:41;100660.00;;;13.40
29423;BMP180;16399;51.686;8.684;2023-04-09T16:16:44;100658.00;;;13.60
29423;BMP180;16399;51.686;8.684;2023-04-09T16:19:48;100661.00;;;13.80
29423;BMP180;16399;51.686;8.684;2023-04-09T16:22:50;100655.00;;;14.00
29423;BMP180;16399;51.686;8.684;2023-04-09T16:25:53;100649.00;;;14.20
29423;BMP180;16399;51.686;8.684;2023-04-09T16:28:55;100649.00;;;14.40
29423;BMP180;16399;51.686;8.684;2023-04-09T16:31:59;100634.00;;;14.80
29423;BMP180;16399;51.686;8.684;2023-04-09T16:35:02;100648.00;;;15.10
29423;BMP180;16399;51.686;8.684;2023-04-09T16:38:05;100629.00;;;15.50
29423;BMP180;16399;51.686;8.684;2023-04-09T16:41:07;100631.00;;;15.70
29423;BMP180;16399;51.686;8.684;2023-04-09T16:44:10;100647.00;;;15.80
29423;BMP180;16399;51.686;8.684;2023-04-09T16:47:12;100649.00;;;15.70
29423;BMP180;16399;51.686;8.684;2023-04-09T16:50:14;100655.00;;;15.50
29423;BMP180;16399;51.686;8.684;2023-04-09T16:53:17;100657.00;;;15.30
29423;BMP180;16399;51.686;8.684;2023-04-09T16:56:19;100656.00;;;15.00
29423;BMP180;16399;51.686;8.684;2023-04-09T16:59:21;100660.00;;;14.70
29423;BMP180;16399;51.686;8.684;2023-04-09T17:02:24;100655.00;;;14.30
29423;BMP180;16399;51.686;8.684;2023-04-09T17:05:27;100662.00;;;14.00
29423;BMP180;16399;51.686;8.684;2023-04-09T17:08:29;100651.00;;;13.70
29423;BMP180;16399;51.686;8.684;2023-04-09T17:11:32;100655.00;;;13.40
29423;BMP180;16399;51.686;8.684;2023-04-09T17:14:34;100659.00;;;13.20
29423;BMP180;16399;51.686;8.684;2023-04-09T17:17:38;100670.00;;;13.00
29423;BMP180;16399;51.686;8.684;2023-04-09T17:20:41;100663.00;;;12.90
29423;BMP180;16399;51.686;8.684;2023-04-09T17:23:43;100665.00;;;12.70
29423;BMP180;16399;51.686;8.684;2023-04-09T17:26:45;100665.00;;;12.60
29423;BMP180;16399;51.686;8.684;2023-04-09T17:29:48;100649.00;;;12.50
29423;BMP180;16399;51.686;8.684;2023-04-09T17:32:50;100655.00;;;12.40
29423;BMP180;16399;51.686;8.684;2023-04-09T17:35:52;100655.00;;;12.30
29423;BMP180;16399;51.686;8.684;2023-04-09T17:38:55;100660.00;;;12.20
29423;BMP180;16399;51.686;8.684;2023-04-09T17:41:57;100661.00;;;12.10